sensor_id;sensor_type;location;lat;lon;timestamp;pressure;altitude;pressure_sealevel;temperature;humidity
72721;BME280;60835;50.974;10.322;2023-05-12T00:01:53;96701.47;;;11.18;100.00
72721;BME280;60835;50.974;10.322;2023-05-12T00:04:20;96700.66;;;11.18;100.00
72721;BME280;60835;50.974;10.322;2023-05-12T00:06:47;96718.75;;;11.08;100.00
72721;BME280;60835;50.974;10.322;2023-05-12T00:09:14;96704.50;;;11.09;100.00
72721;BME280;60835;50.974;10.322;2023-05-12T00:11:41;96704.28;;;11.10;100.00
72721;BME280;60835;50.974;10.322;2023-05-12T00:14:09;96706.53;;;11.13;100.00
72721;BME280;60835;50.974;10.322;2023-05-12T00:16:37;96715.25;;;11.00;100.00
72721;BME280;60835;50.974;10.322;2023-05-12T00:19:03;96709.97;;;11.00;100.00
72721;BME280;60835;50.974;10.322;2023-05-12T00:21:30;96706.50;;;11.00;100.00
72721;BME280;60835;50.974;10.322;2023-05-12T00:23:57;96705.47;;;10.94;100.00
72721;BME280;60835;50.974;10.322;2023-05-12T00:26:24;96716.25;;;10.93;100.00
72721;BME280;60835;50.974;10.322;2023-05-12T00:28:51;96689.22;;;11.04;100.00
72721;BME280;60835;50.974;10.322;2023-05-12T00:31:17;96692.47;;;10.99;100.00
72721;BME280;60835;50.974;10.322;2023-05-12T00:33:44;96696.09;;;10.92;100.00
72721;BME280;60835;50.974;10.322;2023-05-12T00:36:10;96686.16;;;11.00;100.00
72721;BME280;60835;50.974;10.322;2023-05-12T00:38:37;96688.38;;;10.97;100.00
72721;BME280;60835;50.974;10.322;2023-05-12T00:41:07;96683.09;;;10.97;100.00
72721;BME280;60835;50.974;10.322;2023-05-12T00:43:34;96690.19;;;10.90;100.00
72721;BME280;60835;50.974;10.322;2023-05-12T00:46:03;96694.28;;;10.92;100.00
72721;BME280;60835;50.974;10.322;2023-05-12T00:48:31;96694.06;;;10.87;100.00
72721;BME280;60835;50.974;10.322;2023-05-12T00:50:59;96688.78;;;10.94;100.00
72721;BME280;60835;50.974;10.322;2023-05-12T00:53:26;96685.31;;;10.87;100.00
72721;BME280;60835;50.974;10.322;2023-05-12T00:56:09;96691.59;;;10.79;100.00
72721;BME280;60835;50.974;10.322;2023-05-12T00:58:37;96694.56;;;10.70;100.00
72721;BME280;60835;50.974;10.322;2023-05-12T01:01:04;96684.63;;;10.72;100.00
72721;BME280;60835;50.974;10.322;2023-05-12T01:03:30;96677.94;;;10.76;100.00
72721;BME280;60835;50.974;10.322;2023-05-12T01:06:22;96685.44;;;10.72;100.00
72721;BME280;60835;50.974;10.322;2023-05-12T01:08:52;96679.75;;;10.75;100.00
72721;BME280;60835;50.974;10.322;2023-05-12T01:11:19;96673.25;;;10.78;100.00
72721;BME280;60835;50.974;10.322;2023-05-12T01:13:47;96670.00;;;10.76;100.00
72721;BME280;60835;50.974;10.322;2023-05-12T01:16:14;96675.09;;;10.77;100.00
72721;BME280;60835;50.974;10.322;2023-05-12T01:18:42;96685.47;;;10.79;100.00
72721;BME280;60835;50.974;10.322;2023-05-12T01:21:17;96691.53;;;10.73;100.00
72721;BME280;60835;50.974;10.322;2023-05-12T01:23:55;96689.13;;;10.78;100.00
72721;BME280;60835;50.974;10.322;2023-05-12T01:26:27;96657.97;;;10.73;100.00
72721;BME280;60835;50.974;10.322;2023-05-12T01:28:55;96678.59;;;10.91;100.00
72721;BME280;60835;50.974;10.322;2023-05-12T01:31:23;96683.47;;;10.87;100.00
72721;BME280;60835;50.974;10.322;2023-05-12T01:33:49;96686.69;;;10.83;100.00
72721;BME280;60835;50.974;10.322;2023-05-12T01:36:16;96694.84;;;10.81;100.00
72721;BME280;60835;50.974;10.322;2023-05-12T01:38:44;96701.38;;;10.85;100.00
72721;BME280;60835;50.974;10.322;2023-05-12T01:41:11;96704.03;;;10.85;100.00
72721;BME280;60835;50.974;10.322;2023-05-12T01:43:37;96712.97;;;10.84;100.00
72721;BME280;60835;50.974;10.322;2023-05-12T01:46:04;96711.53;;;10.88;100.00
72721;BME280;60835;50.974;10.322;2023-05-12T01:48:31;96720.69;;;10.86;100.00
72721;BME280;60835;50.974;10.322;2023-05-12T01:51:06;96733.50;;;10.82;100.00
72721;BME280;60835;50.974;10.322;2023-05-12T01:53:32;96746.69;;;10.69;100.00
72721;BME280;60835;50.974;10.322;2023-05-12T01:55:59;96755.41;;;10.70;100.00
72721;BME280;60835;50.974;10.322;2023-05-12T01:58:26;96760.91;;;10.68;100.00
72721;BME280;60835;50.974;10.322;2023-05-12T02:00:52;96772.91;;;10.64;100.00
72721;BME280;60835;50.974;10.322;2023-05-12T02:03:19;96765.19;;;10.69;100.00
72721;BME280;60835;50.974;10.322;2023-05-12T02:05:45;96772.91;;;10.64;100.00
72721;BME280;60835;50.974;10.322;2023-05-12T02:08:12;96760.69;;;10.70;100.00
72721;BME280;60835;50.974;10.322;2023-05-12T02:10:39;96772.69;;;10.66;100.00
72721;BME280;60835;50.974;10.322;2023-05-12T02:13:05;96777.59;;;10.69;100.00
72721;BME280;60835;50.974;10.322;2023-05-12T02:15:32;96778.81;;;10.66;100.00
72721;BME280;60835;50.974;10.322;2023-05-12T02:18:00;96745.34;;;10.52;100.00
72721;BME280;60835;50.974;10.322;2023-05-12T02:20:33;96772.53;;;10.74;100.00
72721;BME280;60835;50.974;10.322;2023-05-12T02:23:00;96782.00;;;10.62;100.00
72721;BME280;60835;50.974;10.322;2023-05-12T02:25:28;96798.44;;;10.51;100.00
72721;BME280;60835;50.974;10.322;2023-05-12T02:27:54;96791.94;;;10.53;100.00
72721;BME280;60835;50.974;10.322;2023-05-12T02:30:21;96793.16;;;10.57;100.00
72721;BME280;60835;50.974;10.322;2023-05-12T02:32:48;96802.50;;;10.53;100.00
72721;BME280;60835;50.974;10.322;2023-05-12T02:35:14;96795.63;;;10.59;100.00
72721;BME280;60835;50.974;10.322;2023-05-12T02:37:41;96795.66;;;10.65;100.00
72721;BME280;60835;50.974;10.322;2023-05-12T02:40:08;96789.16;;;10.61;100.00
72721;BME280;60835;50.974;10.322;2023-05-12T02:42:34;96797.25;;;10.60;100.00
72721;BME280;60835;50.974;10.322;2023-05-12T02:45:07;96802.13;;;10.56;100.00
72721;BME280;60835;50.974;10.322;2023-05-12T02:47:37;96807.41;;;10.56;100.00
72721;BME280;60835;50.974;10.322;2023-05-12T02:50:05;96804.56;;;10.58;100.00
72721;BME280;60835;50.974;10.322;2023-05-12T02:52:31;96802.16;;;10.63;100.00
72721;BME280;60835;50.974;10.322;2023-05-12T02:54:58;96812.28;;;10.53;100.00
72721;BME280;60835;50.974;10.322;2023-05-12T02:57:24;96811.06;;;10.55;100.00
72721;BME280;60835;50.974;10.322;2023-05-12T03:00:00;96811.06;;;10.55;100.00
72721;BME280;60835;50.974;10.322;2023-05-12T03:02:27;96808.63;;;10.54;100.00
72721;BME280;60835;50.974;10.322;2023-05-12T03:04:54;96811.00;;;10.49;100.00
72721;BME280;60835;50.974;10.322;2023-05-12T03:07:20;96815.91;;;10.52;100.00
72721;BME280;60835;50.974;10.322;2023-05-12T03:09:47;96810.06;;;10.56;100.00
72721;BME280;60835;50.974;10.322;2023-05-12T03:12:13;96817.34;;;10.54;100.00
72721;BME280;60835;50.974;10.322;2023-05-12T03:14:42;96816.34;;;10.55;100.00
72721;BME280;60835;50.974;10.322;2023-05-12T03:17:09;96823.66;;;10.53;100.00
72721;BME280;60835;50.974;10.322;2023-05-12T03:19:36;96819.22;;;10.60;100.00
72721;BME280;60835;50.974;10.322;2023-05-12T03:22:03;96809.25;;;10.56;100.00
72721;BME280;60835;50.974;10.322;2023-05-12T03:24:33;96824.31;;;10.62;100.00
72721;BME280;60835;50.974;10.322;2023-05-12T03:27:01;96820.06;;;10.67;100.00
72721;BME280;60835;50.974;10.322;2023-05-12T03:29:28;96834.72;;;10.63;100.00
72721;BME280;60835;50.974;10.322;2023-05-12T03:31:54;96836.53;;;10.63;100.00
72721;BME280;60835;50.974;10.322;2023-05-12T03:34:21;96831.06;;;10.64;100.00
72721;BME280;60835;50.974;10.322;2023-05-12T03:36:47;96839.56;;;10.60;100.00
72721;BME280;60835;50.974;10.322;2023-05-12T03:39:14;96849.31;;;10.59;100.00
72721;BME280;60835;50.974;10.322;2023-05-12T03:41:41;96841.16;;;10.54;100.00
72721;BME280;60835;50.974;10.322;2023-05-12T03:44:08;96844.84;;;10.60;100.00
72721;BME280;60835;50.974;10.322;2023-05-12T03:46:36;96837.25;;;10.50;100.00
72721;BME280;60835;50.974;10.322;2023-05-12T03:49:03;96847.69;;;10.58;100.00
72721;BME280;60835;50.974;10.322;2023-05-12T03:51:29;96849.28;;;10.53;100.00
72721;BME280;60835;50.974;10.322;2023-05-12T03:53:56;96856.22;;;10.54;100.00
72721;BME280;60835;50.974;10.322;2023-05-12T03:56:23;96865.31;;;10.51;100.00
72721;BME280;60835;50.974;10.322;2023-05-12T03:58:49;96854.00;;;10.57;100.00
72721;BME280;60835;50.974;10.322;2023-05-12T04:01:16;96860.31;;;10.56;100.00
72721;BME280;60835;50.974;10.322;2023-05-12T04:03:42;96853.81;;;10.59;100.00
72721;BME280;60835;50.974;10.322;2023-05-12T04:06:09;96872.88;;;10.54;100.00
72721;BME280;60835;50.974;10.322;2023-05-12T04:08:40;96871.63;;;10.50;100.00
72721;BME280;60835;50.974;10.322;2023-05-12T04:11:07;96881.38;;;10.50;100.00
72721;BME280;60835;50.974;10.322;2023-05-12T04:13:34;96878.41;;;10.59;100.00
72721;BME280;60835;50.974;10.322;2023-05-12T04:16:01;96871.81;;;10.76;100.00
72721;BME280;60835;50.974;10.322;2023-05-12T04:18:28;96879.19;;;10.81;100.00
72721;BME280;60835;50.974;10.322;2023-05-12T04:20:54;96871.53;;;10.92;100.00
72721;BME280;60835;50.974;10.322;2023-05-12T04:23:21;96875.03;;;10.99;100.00
72721;BME280;60835;50.974;10.322;2023-05-12T04:25:48;96886.63;;;10.98;100.00
72721;BME280;60835;50.974;10.322;2023-05-12T04:28:15;96875.31;;;11.11;100.00
72721;BME280;60835;50.974;10.322;2023-05-12T04:30:41;96886.31;;;11.15;100.00
72721;BME280;60835;50.974;10.322;2023-05-12T04:33:09;96898.16;;;11.19;100.00
72721;BME280;60835;50.974;10.322;2023-05-12T04:35:37;96908.72;;;11.19;100.00
72721;BME280;60835;50.974;10.322;2023-05-12T04:38:03;96921.59;;;11.28;100.00
72721;BME280;60835;50.974;10.322;2023-05-12T04:40:30;96927.94;;;11.27;100.00
72721;BME280;60835;50.974;10.322;2023-05-12T04:43:00;96961.81;;;11.11;100.00
72721;BME280;60835;50.974;10.322;2023-05-12T04:45:26;96967.72;;;11.13;100.00
72721;BME280;60835;50.974;10.322;2023-05-12T04:47:55;96960.59;;;11.41;100.00
72721;BME280;60835;50.974;10.322;2023-05-12T04:50:21;96969.16;;;11.43;100.00
72721;BME280;60835;50.974;10.322;2023-05-12T04:52:48;97015.00;;;11.16;100.00
72721;BME280;60835;50.974;10.322;2023-05-12T04:55:14;97005.94;;;11.31;100.00
72721;BME280;60835;50.974;10.322;2023-05-12T04:57:41;97024.81;;;11.22;100.00
72721;BME280;60835;50.974;10.322;2023-05-12T05:00:08;97014.63;;;11.53;100.00
72721;BME280;60835;50.974;10.322;2023-05-12T05:02:35;97004.84;;;11.81;100.00
72721;BME280;60835;50.974;10.322;2023-05-12T05:05:04;97008.13;;;11.83;100.00
72721;BME280;60835;50.974;10.322;2023-05-12T05:07:31;97019.78;;;11.95;100.00
72721;BME280;60835;50.974;10.322;2023-05-12T05:09:57;97044.41;;;11.89;100.00
72721;BME280;60835;50.974;10.322;2023-05-12T05:12:27;97066.06;;;11.99;100.00
72721;BME280;60835;50.974;10.322;2023-05-12T05:14:53;97097.81;;;11.86;100.00
72721;BME280;60835;50.974;10.322;2023-05-12T05:17:20;97117.41;;;11.92;100.00
72721;BME280;60835;50.974;10.322;2023-05-12T05:19:47;97133.38;;;12.05;100.00
72721;BME280;60835;50.974;10.322;2023-05-12T05:22:23;97134.81;;;12.42;100.00
72721;BME280;60835;50.974;10.322;2023-05-12T05:24:50;97149.84;;;12.28;100.00
72721;BME280;60835;50.974;10.322;2023-05-12T05:27:17;97168.50;;;12.41;100.00
72721;BME280;60835;50.974;10.322;2023-05-12T05:29:44;97187.06;;;12.48;100.00
72721;BME280;60835;50.974;10.322;2023-05-12T05:32:11;97198.97;;;12.58;100.00
72721;BME280;60835;50.974;10.322;2023-05-12T05:34:37;97256.75;;;12.07;100.00
72721;BME280;60835;50.974;10.322;2023-05-12T05:37:04;97251.94;;;12.45;100.00
72721;BME280;60835;50.974;10.322;2023-05-12T05:39:34;97264.88;;;12.55;100.00
72721;BME280;60835;50.974;10.322;2023-05-12T05:42:01;97306.50;;;12.27;100.00
72721;BME280;60835;50.974;10.322;2023-05-12T05:44:28;97322.84;;;12.30;100.00
72721;BME280;60835;50.974;10.322;2023-05-12T05:46:54;97300.00;;;12.57;100.00
72721;BME280;60835;50.974;10.322;2023-05-12T05:49:21;97331.53;;;12.45;100.00
72721;BME280;60835;50.974;10.322;2023-05-12T05:51:48;97335.63;;;12.48;100.00
72721;BME280;60835;50.974;10.322;2023-05-12T05:54:15;97339.41;;;12.60;100.00
72721;BME280;60835;50.974;10.322;2023-05-12T05:56:41;97316.31;;;12.95;100.00
72721;BME280;60835;50.974;10.322;2023-05-12T05:59:08;97324.66;;;13.19;100.00
72721;BME280;60835;50.974;10.322;2023-05-12T06:01:35;97346.13;;;13.18;100.00
72721;BME280;60835;50.974;10.322;2023-05-12T06:04:02;97391.59;;;13.08;100.00
72721;BME280;60835;50.974;10.322;2023-05-12T06:06:29;97414.78;;;13.27;100.00
72721;BME280;60835;50.974;10.322;2023-05-12T06:11:23;97492.84;;;13.05;100.00
72721;BME280;60835;50.974;10.322;2023-05-12T06:13:50;97497.22;;;13.40;100.00
72721;BME280;60835;50.974;10.322;2023-05-12T06:16:16;97544.25;;;12.98;100.00
72721;BME280;60835;50.974;10.322;2023-05-12T06:18:43;97529.09;;;13.40;100.00
72721;BME280;60835;50.974;10.322;2023-05-12T06:21:12;97549.13;;;13.36;100.00
72721;BME280;60835;50.974;10.322;2023-05-12T06:23:38;97586.31;;;13.36;100.00
72721;BME280;60835;50.974;10.322;2023-05-12T06:26:05;97589.63;;;13.45;100.00
72721;BME280;60835;50.974;10.322;2023-05-12T06:28:33;97613.00;;;13.56;100.00
72721;BME280;60835;50.974;10.322;2023-05-12T06:30:59;97630.78;;;13.28;100.00
72721;BME280;60835;50.974;10.322;2023-05-12T06:33:26;97637.03;;;13.41;100.00
72721;BME280;60835;50.974;10.322;2023-05-12T06:35:53;97622.97;;;13.75;100.00
72721;BME280;60835;50.974;10.322;2023-05-12T06:38:20;97617.47;;;14.11;100.00
72721;BME280;60835;50.974;10.322;2023-05-12T06:40:46;97631.50;;;14.26;100.00
72721;BME280;60835;50.974;10.322;2023-05-12T06:43:13;97653.81;;;13.97;100.00
72721;BME280;60835;50.974;10.322;2023-05-12T06:45:43;97666.63;;;13.87;100.00
72721;BME280;60835;50.974;10.322;2023-05-12T06:48:10;97679.44;;;14.05;100.00
72721;BME280;60835;50.974;10.322;2023-05-12T06:50:37;97683.19;;;14.17;100.00
72721;BME280;60835;50.974;10.322;2023-05-12T06:53:04;97713.56;;;14.29;100.00
72721;BME280;60835;50.974;10.322;2023-05-12T06:55:31;97748.72;;;14.25;100.00
72721;BME280;60835;50.974;10.322;2023-05-12T06:57:58;97749.50;;;14.40;100.00
72721;BME280;60835;50.974;10.322;2023-05-12T07:00:25;97768.78;;;14.48;100.00
72721;BME280;60835;50.974;10.322;2023-05-12T07:02:51;97775.53;;;14.23;100.00
72721;BME280;60835;50.974;10.322;2023-05-12T07:05:18;97806.84;;;13.79;100.00
72721;BME280;60835;50.974;10.322;2023-05-12T07:07:46;97786.06;;;14.10;100.00
72721;BME280;60835;50.974;10.322;2023-05-12T07:10:13;97773.78;;;14.64;100.00
72721;BME280;60835;50.974;10.322;2023-05-12T07:12:39;97791.81;;;14.62;100.00
72721;BME280;60835;50.974;10.322;2023-05-12T07:15:06;97814.38;;;14.67;100.00
72721;BME280;60835;50.974;10.322;2023-05-12T07:17:33;97812.00;;;15.25;100.00
72721;BME280;60835;50.974;10.322;2023-05-12T07:20:00;97863.91;;;15.36;100.00
72721;BME280;60835;50.974;10.322;2023-05-12T07:22:27;97925.84;;;14.76;100.00
72721;BME280;60835;50.974;10.322;2023-05-12T07:24:54;97946.00;;;14.43;100.00
72721;BME280;60835;50.974;10.322;2023-05-12T07:27:23;97937.91;;;15.00;100.00
72721;BME280;60835;50.974;10.322;2023-05-12T07:29:49;97953.16;;;15.40;100.00
72721;BME280;60835;50.974;10.322;2023-05-12T07:32:16;97956.25;;;15.84;100.00
72721;BME280;60835;50.974;10.322;2023-05-12T07:34:43;98001.22;;;15.25;100.00
72721;BME280;60835;50.974;10.322;2023-05-12T07:37:09;98006.63;;;16.01;100.00
72721;BME280;60835;50.974;10.322;2023-05-12T07:39:36;98027.47;;;16.31;100.00
72721;BME280;60835;50.974;10.322;2023-05-12T07:42:04;98062.38;;;16.30;100.00
72721;BME280;60835;50.974;10.322;2023-05-12T07:44:31;98064.97;;;16.64;100.00
72721;BME280;60835;50.974;10.322;2023-05-12T07:46:58;98077.81;;;17.41;100.00
72721;BME280;60835;50.974;10.322;2023-05-12T07:49:25;98113.00;;;17.18;100.00
72721;BME280;60835;50.974;10.322;2023-05-12T07:51:54;98093.81;;;18.13;100.00
72721;BME280;60835;50.974;10.322;2023-05-12T07:54:24;98114.84;;;17.90;100.00
72721;BME280;60835;50.974;10.322;2023-05-12T07:56:51;98117.13;;;17.67;100.00
72721;BME280;60835;50.974;10.322;2023-05-12T07:59:17;98110.56;;;18.59;100.00
72721;BME280;60835;50.974;10.322;2023-05-12T08:01:44;98109.13;;;18.57;100.00
72721;BME280;60835;50.974;10.322;2023-05-12T08:04:11;98153.31;;;17.36;100.00
72721;BME280;60835;50.974;10.322;2023-05-12T08:06:38;98162.84;;;16.78;100.00
72721;BME280;60835;50.974;10.322;2023-05-12T08:09:04;98160.13;;;17.52;100.00
72721;BME280;60835;50.974;10.322;2023-05-12T08:11:31;98155.59;;;17.98;100.00
72721;BME280;60835;50.974;10.322;2023-05-12T08:13:58;98171.06;;;17.70;100.00
72721;BME280;60835;50.974;10.322;2023-05-12T08:16:25;98164.38;;;18.58;100.00
72721;BME280;60835;50.974;10.322;2023-05-12T08:18:52;98170.97;;;18.55;100.00
72721;BME280;60835;50.974;10.322;2023-05-12T08:21:18;98133.59;;;20.17;100.00
72721;BME280;60835;50.974;10.322;2023-05-12T08:23:45;98175.97;;;18.06;100.00
72721;BME280;60835;50.974;10.322;2023-05-12T08:26:12;98180.88;;;18.42;100.00
72721;BME280;60835;50.974;10.322;2023-05-12T08:28:38;98170.69;;;19.14;100.00
72721;BME280;60835;50.974;10.322;2023-05-12T08:31:05;98178.75;;;18.70;100.00
72721;BME280;60835;50.974;10.322;2023-05-12T08:33:35;98146.72;;;20.07;100.00
72721;BME280;60835;50.974;10.322;2023-05-12T08:36:02;98113.78;;;19.43;100.00
72721;BME280;60835;50.974;10.322;2023-05-12T08:38:29;98047.97;;;20.75;100.00
72721;BME280;60835;50.974;10.322;2023-05-12T08:43:56;97959.56;;;21.08;100.00
72721;BME280;60835;50.974;10.322;2023-05-12T08:46:24;97918.56;;;20.71;100.00
72721;BME280;60835;50.974;10.322;2023-05-12T08:48:52;97984.56;;;18.72;100.00
72721;BME280;60835;50.974;10.322;2023-05-12T08:51:19;97944.53;;;20.36;100.00
72721;BME280;60835;50.974;10.322;2023-05-12T08:53:47;97938.66;;;20.57;100.00
72721;BME280;60835;50.974;10.322;2023-05-12T08:56:16;97934.31;;;20.26;100.00
72721;BME280;60835;50.974;10.322;2023-05-12T08:58:47;97978.88;;;19.12;100.00
72721;BME280;60835;50.974;10.322;2023-05-12T09:01:15;98098.94;;;18.72;100.00
72721;BME280;60835;50.974;10.322;2023-05-12T09:03:43;98030.97;;;19.54;100.00
72721;BME280;60835;50.974;10.322;2023-05-12T09:06:10;98087.31;;;18.47;100.00
72721;BME280;60835;50.974;10.322;2023-05-12T09:08:37;98099.59;;;18.74;100.00
72721;BME280;60835;50.974;10.322;2023-05-12T09:11:09;98098.59;;;18.62;100.00
72721;BME280;60835;50.974;10.322;2023-05-12T09:16:23;98105.63;;;19.01;100.00
72721;BME280;60835;50.974;10.322;2023-05-12T09:18:55;98099.25;;;18.95;100.00
72721;BME280;60835;50.974;10.322;2023-05-12T09:21:23;98087.69;;;19.26;100.00
72721;BME280;60835;50.974;10.322;2023-05-12T09:24:03;98088.75;;;18.94;100.00
72721;BME280;60835;50.974;10.322;2023-05-12T09:29:11;98122.91;;;18.67;100.00
72721;BME280;60835;50.974;10.322;2023-05-12T09:31:54;98094.69;;;19.83;100.00
72721;BME280;60835;50.974;10.322;2023-05-12T09:34:31;98052.63;;;19.95;100.00
72721;BME280;60835;50.974;10.322;2023-05-12T09:37:02;97997.94;;;20.44;100.00
72721;BME280;60835;50.974;10.322;2023-05-12T09:39:29;98016.63;;;19.84;100.00
72721;BME280;60835;50.974;10.322;2023-05-12T09:41:56;97878.03;;;21.82;100.00
72721;BME280;60835;50.974;10.322;2023-05-12T09:44:24;98905.84;;;22.45;100.00
72721;BME280;60835;50.974;10.322;2023-05-12T09:46:51;98956.44;;;22.50;100.00
72721;BME280;60835;50.974;10.322;2023-05-12T09:49:19;98978.94;;;22.93;100.00
72721;BME280;60835;50.974;10.322;2023-05-12T09:51:51;98920.47;;;21.36;100.00
72721;BME280;60835;50.974;10.322;2023-05-12T09:54:26;98784.44;;;20.70;100.00
72721;BME280;60835;50.974;10.322;2023-05-12T09:56:57;98586.63;;;19.59;100.00
72721;BME280;60835;50.974;10.322;2023-05-12T09:59:32;98672.66;;;21.62;100.00
72721;BME280;60835;50.974;10.322;2023-05-12T10:02:00;98703.66;;;21.71;100.00
72721;BME280;60835;50.974;10.322;2023-05-12T10:04:34;98761.84;;;21.41;100.00
72721;BME280;60835;50.974;10.322;2023-05-12T10:07:07;98726.03;;;20.96;100.00
72721;BME280;60835;50.974;10.322;2023-05-12T10:09:36;98744.78;;;20.19;100.00
72721;BME280;60835;50.974;10.322;2023-05-12T10:12:04;98674.97;;;20.83;100.00
72721;BME280;60835;50.974;10.322;2023-05-12T10:14:32;98754.66;;;21.66;100.00
72721;BME280;60835;50.974;10.322;2023-05-12T10:16:59;98858.78;;;22.17;100.00
72721;BME280;60835;50.974;10.322;2023-05-12T10:19:31;98982.69;;;24.33;100.00
72721;BME280;60835;50.974;10.322;2023-05-12T10:21:59;99002.72;;;24.43;100.00
72721;BME280;60835;50.974;10.322;2023-05-12T10:24:27;99026.63;;;25.64;100.00
72721;BME280;60835;50.974;10.322;2023-05-12T10:26:54;99038.06;;;23.26;100.00
72721;BME280;60835;50.974;10.322;2023-05-12T10:29:23;99008.75;;;21.85;100.00
72721;BME280;60835;50.974;10.322;2023-05-12T10:31:58;98922.84;;;22.46;100.00
72721;BME280;60835;50.974;10.322;2023-05-12T10:34:32;98959.56;;;22.78;100.00
72721;BME280;60835;50.974;10.322;2023-05-12T10:36:59;98976.94;;;22.20;100.00
72721;BME280;60835;50.974;10.322;2023-05-12T10:39:27;99025.50;;;23.99;100.00
72721;BME280;60835;50.974;10.322;2023-05-12T10:42:21;98940.06;;;22.14;100.00
72721;BME280;60835;50.974;10.322;2023-05-12T10:44:53;99002.44;;;23.97;100.00
72721;BME280;60835;50.974;10.322;2023-05-12T10:47:24;99030.28;;;22.05;100.00
72721;BME280;60835;50.974;10.322;2023-05-12T10:49:55;99040.66;;;22.83;100.00
72721;BME280;60835;50.974;10.322;2023-05-12T10:52:30;99032.44;;;23.52;100.00
72721;BME280;60835;50.974;10.322;2023-05-12T10:55:01;99024.88;;;23.12;100.00
72721;BME280;60835;50.974;10.322;2023-05-12T10:57:30;99023.97;;;23.67;100.00
72721;BME280;60835;50.974;10.322;2023-05-12T10:59:59;99068.28;;;24.57;100.00
72721;BME280;60835;50.974;10.322;2023-05-12T11:02:29;99069.41;;;23.02;100.00
72721;BME280;60835;50.974;10.322;2023-05-12T11:05:01;99046.34;;;21.41;100.00
72721;BME280;60835;50.974;10.322;2023-05-12T11:07:33;99056.88;;;23.64;100.00
72721;BME280;60835;50.974;10.322;2023-05-12T11:10:03;99060.06;;;22.67;100.00
72721;BME280;60835;50.974;10.322;2023-05-12T11:12:33;99042.09;;;23.42;100.00
72721;BME280;60835;50.974;10.322;2023-05-12T11:15:04;99066.69;;;23.27;100.00
72721;BME280;60835;50.974;10.322;2023-05-12T11:17:32;99060.78;;;24.04;100.00
72721;BME280;60835;50.974;10.322;2023-05-12T11:19:59;99085.06;;;23.68;100.00
72721;BME280;60835;50.974;10.322;2023-05-12T11:22:28;99082.63;;;25.28;100.00
72721;BME280;60835;50.974;10.322;2023-05-12T11:25:08;99089.22;;;25.09;100.00
72721;BME280;60835;50.974;10.322;2023-05-12T11:27:35;99085.31;;;24.28;100.00
72721;BME280;60835;50.974;10.322;2023-05-12T11:30:07;99038.31;;;22.93;100.00
72721;BME280;60835;50.974;10.322;2023-05-12T11:32:36;99052.44;;;22.58;100.00
72721;BME280;60835;50.974;10.322;2023-05-12T11:35:13;99027.81;;;22.41;100.00
72721;BME280;60835;50.974;10.322;2023-05-12T11:37:42;99021.16;;;23.13;100.00
72721;BME280;60835;50.974;10.322;2023-05-12T11:42:39;99046.66;;;22.85;100.00
72721;BME280;60835;50.974;10.322;2023-05-12T11:45:18;99070.13;;;23.16;100.00
72721;BME280;60835;50.974;10.322;2023-05-12T11:47:47;99084.88;;;22.82;100.00
72721;BME280;60835;50.974;10.322;2023-05-12T11:50:21;99085.97;;;23.06;100.00
72721;BME280;60835;50.974;10.322;2023-05-12T11:52:49;99087.22;;;23.35;100.00
72721;BME280;60835;50.974;10.322;2023-05-12T11:55:21;99092.66;;;23.28;100.00
72721;BME280;60835;50.974;10.322;2023-05-12T11:57:57;99093.28;;;23.80;100.00
72721;BME280;60835;50.974;10.322;2023-05-12T12:00:32;99095.09;;;25.82;100.00
72721;BME280;60835;50.974;10.322;2023-05-12T12:03:10;99098.50;;;25.13;100.00
72721;BME280;60835;50.974;10.322;2023-05-12T12:05:42;99087.22;;;23.03;100.00
72721;BME280;60835;50.974;10.322;2023-05-12T12:08:14;99099.72;;;24.88;100.00
72721;BME280;60835;50.974;10.322;2023-05-12T12:10:44;99067.88;;;22.82;100.00
72721;BME280;60835;50.974;10.322;2023-05-12T12:13:23;99090.56;;;24.41;100.00
72721;BME280;60835;50.974;10.322;2023-05-12T12:15:50;99094.88;;;23.38;100.00
72721;BME280;60835;50.974;10.322;2023-05-12T12:18:17;99087.50;;;22.58;100.00
72721;BME280;60835;50.974;10.322;2023-05-12T12:20:46;99074.75;;;22.27;100.00
72721;BME280;60835;50.974;10.322;2023-05-12T12:23:12;99096.00;;;23.55;100.00
72721;BME280;60835;50.974;10.322;2023-05-12T12:25:44;99091.56;;;23.85;100.00
72721;BME280;60835;50.974;10.322;2023-05-12T12:28:11;99090.19;;;22.95;100.00
72721;BME280;60835;50.974;10.322;2023-05-12T12:30:38;99099.38;;;23.50;100.00
72721;BME280;60835;50.974;10.322;2023-05-12T12:33:05;99077.09;;;23.55;100.00
72721;BME280;60835;50.974;10.322;2023-05-12T12:35:31;99108.34;;;24.48;100.00
72721;BME280;60835;50.974;10.322;2023-05-12T12:37:58;99110.25;;;24.05;100.00
72721;BME280;60835;50.974;10.322;2023-05-12T12:40:25;99114.94;;;22.92;100.00
72721;BME280;60835;50.974;10.322;2023-05-12T12:42:52;99115.66;;;22.62;100.00
72721;BME280;60835;50.974;10.322;2023-05-12T12:45:19;99104.09;;;22.55;100.00
72721;BME280;60835;50.974;10.322;2023-05-12T12:47:46;99099.94;;;21.81;100.00
72721;BME280;60835;50.974;10.322;2023-05-12T12:50:13;99092.50;;;21.70;100.00
72721;BME280;60835;50.974;10.322;2023-05-12T12:52:40;99096.31;;;22.33;100.00
72721;BME280;60835;50.974;10.322;2023-05-12T12:55:07;99113.44;;;21.88;100.00
72721;BME280;60835;50.974;10.322;2023-05-12T12:57:35;99096.38;;;22.07;100.00
72721;BME280;60835;50.974;10.322;2023-05-12T13:00:02;99112.19;;;21.51;100.00